Tiempo atmosférico en la estación meteorológica de A Coruña, A Coruña (58 m.)



Fecha
DESCASC
Temp. máxima en grados centígrados (hora)
DESCASC
Temp. mínima en grados centígrados (hora)
DESCASC
Temp. media en grados centígrados
DESCASC
Racha de viento máxima en m/sg (hora)
DESCASC
Velocidad máxima media en intervalos de 10 minutos(hora)
DESCASC
Precipitaciones diarias en mm
DESCASC
Precipitaciones de 00:00 a 06:00 en mm
DESCASC
Precipitaciones de 06:00 a 12:00 en mm
DESCASC
Precipitaciones de 12:00 a 18:00 en mm
DESCASC
Precipitaciones de 18:00 a 24:00 en mm
DESCASC
16-06-2019 18.4 (12:30) 12 (07:00) 15.2 8.06 (21:30) 5 (22:20) 0 0 0 0 0
15-06-2019 18.2 (15:00) 12.7 (07:20) 15.5 10.56 (15:20) 7.22 (15:50) 0 0 0 0 0
14-06-2019 18.8 (16:30) 10.3 (07:00) 14.5 8.61 (22:30) 5.83 (16:50) 0.8 0 0 0 0.8
13-06-2019 16.7 (14:50) 11.2 (00:00) 14 6.67 (15:20) 4.72 (15:30) 0 0 0 0 0
12-06-2019 17.9 (13:10) 12.8 (00:00) 15.3 9.17 (03:30) 4.72 (15:40) 0.2 0.2 0 0 0
11-06-2019 16.7 (14:40) 11.9 (00:00) 14.3 10.56 (03:50) 7.5 (08:50) 3.4 3.4 0 0 0
10-06-2019 17.7 (15:50) 10.8 (00:00) 14.3 6.94 (16:00) 4.44 (15:20) 0 0 0 0 0
09-06-2019 17.2 (16:10) 11.9 (00:00) 14.6 8.06 (18:00) 5.83 (22:40) 0.4 0 0.4 0 0
08-06-2019 15.8 (12:40) 10.4 (00:00) 13.1 6.67 (19:40) 5 (19:50) 0.2 0 0 0.2 0
07-06-2019 17.6 (14:30) 10.3 (00:00) 14 16.39 (02:30) 8.89 (07:10) 9 8.4 0.6 0 0
06-06-2019 16.8 (16:40) 10.3 (00:00) 13.5 21.67 (17:00) 12.5 (17:40) 17.4 0 1 5.8 10.6
05-06-2019 17.6 (14:30) 11.8 (00:00) 14.7 12.78 (12:40) 7.78 (15:50) 8.2 6 2.2 0 0
04-06-2019 19.2 (15:20) 13.8 (00:00) 16.5 18.89 (08:00) 8.61 (15:30) 3.4 0 3.4 0 0
03-06-2019 17.6 (14:40) 14.7 (00:00) 16.2 6.39 (22:20) 4.72 (07:00) 7.2 5.4 1.8 0 0
02-06-2019 21.2 (15:50) 14.2 (00:00) 17.7 11.39 (18:30) 6.67 (19:00) 0 0 0 0 0
01-06-2019 26.5 (13:30) 15.6 (00:00) 21.1 7.22 (15:20) 5.28 (19:20) 0 0 0 0 0
31-05-2019 33.6 (12:30) 16.4 (00:00) 25 7.78 (16:20) 5 (16:30) 0 0 0 0 0
30-05-2019 26.4 (18:30) 13.9 (00:00) 20.1 6.11 (17:30) 3.33 (17:20) 0 0 0 0 0
29-05-2019 18.9 (16:40) 11.3 (00:00) 15.1 9.44 (14:50) 6.39 (13:00) 0 0 0 0 0
28-05-2019 16.8 (14:10) 12.1 (00:00) 14.4 12.22 (18:10) 8.89 (17:50) 0 0 0 0 0
27-05-2019 16.1 (16:10) 13.3 (00:00) 14.7 10.56 (18:30) 8.61 (18:50) 0.8 0.4 0.4 0 0
26-05-2019 17.2 (15:10) 13.5 (00:00) 15.4 7.5 (17:30) 5.28 (13:40) 0 0 0 0 0
25-05-2019 16.8 (16:40) 13.1 (00:00) 14.9 11.67 (16:40) 8.33 (19:30) 0 0 0 0 0
24-05-2019 16.8 (16:30) 13.1 (00:00) 14.9 12.5 (17:50) 8.89 (17:20) 0 0 0 0 0
23-05-2019 18.3 (17:20) 13.9 (00:00) 16.1 9.44 (13:40) 6.39 (13:40) 0 0 0 0 0
22-05-2019 21.2 (12:50) 12 (00:00) 16.6 8.89 (20:00) 5.56 (19:00) 0 0 0 0 0

Gráficas

Temp. máximas Temp. mínimas Temp. medias Precipitaciones Rachas de viento máximas Velocidades máximas media en intervalos de 10 minutos

Datos horarios

Fecha y hora oficial Temperatura (ºC) Velocidad del viento (km/h) Dirección del viento Racha (km/h) Dirección de racha Precipitación (mm) Presión (hPa) Tendencia (hPa) Humedad (%)
2019-06-20 23:00:00 15.4 13 Nordeste 27 Nordeste 0 1011.3 0.5 83
2019-06-20 22:00:00 15.5 17 Nordeste 33 Norte 0 1010.9 0.3 85
2019-06-20 21:00:00 15.8 19 Norte 37 Norte 0 1011 0.7 83
2019-06-20 20:00:00 15.9 21 Norte 46 Norte 0 1010.8 0.4 83
2019-06-20 19:00:00 16 25 Norte 42 Norte 0 1010.6 -0.1 83
2019-06-20 18:00:00 16.7 29 Norte 43 Norte 0 1010.3 -0.3 79
2019-06-20 17:00:00 16.7 30 Norte 42 Norte 0 1010.4 -0.3 80
2019-06-20 16:00:00 17.4 28 Norte 42 Norte 0 1010.7 -0.2 77
2019-06-20 15:00:00 17.5 27 Norte 41 Norte 0 1010.6 -0.1 76
2019-06-20 14:00:00 17.3 23 Norte 35 Norte 0 1010.7 0.2 79
2019-06-20 13:00:00 17.5 23 Norte 32 Norte 0 1010.9 0.4 76
2019-06-20 12:00:00 17.6 19 Norte 26 Norte 0 1010.7 0.2 74
2019-06-20 11:00:00 17.1 13 Norte 21 Norte 0 1010.5 0.1 78
2019-06-20 10:00:00 16.5 12 Nordeste 21 Nordeste 0 1010.5 0.2 84
2019-06-20 09:00:00 15.5 8 Norte 14 Norte 0 1010.5 0.6 87
2019-06-20 08:00:00 15.2 9 Nordeste 15 Nordeste 0 1010.4 0.5 89
2019-06-20 07:00:00 15.1 9 Norte 17 Norte 0 1010.3 0 91
2019-06-20 06:00:00 15.1 12 Nordeste 23 Norte 0 1009.9 -0.6 91
2019-06-20 05:00:00 15.2 10 Norte 17 Norte 0 1009.9 -0.8 92
2019-06-20 04:00:00 15.3 9 Norte 13 Norte 0 1010.3 -0.2 95
2019-06-20 03:00:00 15.5 6 Norte 12 Nordeste 0 1010.5 0 95
2019-06-20 02:00:00 15.6 5 Noroeste 10 Norte 0 1010.7 0.5 94
2019-06-20 01:00:00 15.6 5 Norte 10 Norte 0 1010.5 0.6 94
2019-06-20 00:00:00 15.7 4 Noroeste 7 Norte 0 1010.5 0.7 91
2019-06-19 23:00:00 16 3 Norte 6 Nordeste 0 1010.2 0.8 90
2019-06-19 22:00:00 16.1 5 Norte 8 Noroeste 0 1009.9 0.7 90
2019-06-19 21:00:00 16.3 4 Norte 8 Norte 0 1009.8 0.7 89
2019-06-19 20:00:00 16.4 4 Nordeste 14 Noroeste 0 1009.4 0.5 90
2019-06-19 19:00:00 16.9 8 Noroeste 14 Noroeste 0 1009.2 0.5 87
2019-06-19 18:00:00 17.9 8 Oeste 15 Oeste 0 1009.1 0.7 82
2019-06-19 17:00:00 18.1 5 Noroeste 12 Noroeste 0 1008.9 0.9 81
2019-06-19 16:00:00 17.9 8 Oeste 15 Oeste 0 1008.7 1 82
2019-06-19 15:00:00 18.5 7 Noroeste 17 Oeste 0 1008.4 1.2 79
2019-06-19 14:00:00 18 10 Noroeste 22 Oeste 0 1008 1.1 83
2019-06-19 13:00:00 17.1 10 Oeste 16 Oeste 0 1007.7 1 87
2019-06-19 12:00:00 16.5 10 Oeste 18 Oeste 0 1007.2 1.1 92
2019-06-19 11:00:00 16.3 12 Oeste 21 Oeste 0 1006.9 1.3 92
2019-06-19 10:00:00 16.7 11 Oeste 18 Oeste 0 1006.7 1.9 84
2019-06-19 09:00:00 16.7 3 Oeste 16 Oeste 0 1006.1 1.5 82
2019-06-19 08:00:00 16.6 7 Oeste 16 Noroeste 0 1005.6 1.1 80
2019-06-19 07:00:00 16.7 8 Sur 28 Sudoeste 0 1004.8 0.4 75
2019-06-19 06:00:00 17.1 6 Sudoeste 17 Sudoeste 0 1004.6 0.4 74
2019-06-19 05:00:00 17.2 6 Sudoeste 33 Sur 0 1004.5 0.3 72
2019-06-19 04:00:00 17.1 19 Sudoeste 30 Sudoeste 0 1004.4 0.3 75
2019-06-19 03:00:00 16.9 8 Sudoeste 23 Sudoeste 0 1004.2 0.4 78
2019-06-19 02:00:00 17.1 8 Sudoeste 28 Sudoeste 0 1004.2 1 78
2019-06-19 01:00:00 17.3 6 Sur 36 Sudoeste 0 1004.1 1.8 79
2019-06-19 00:00:00 17.5 16 Sudoeste 40 Sudoeste 0 1003.8 1.8 79
2019-06-18 23:00:00 18 17 Sudoeste 38 Sudoeste 0 1003.2 1.1 78
2019-06-18 22:00:00 18.3 14 Sur 42 Sur 0 1002.3 0.5 77
2019-06-18 21:00:00 18.9 16 Sur 36 Sur 0 1002 0.4 72
2019-06-18 20:00:00 19.5 19 Sur 46 Sudoeste 0 1002.1 0.8 69
2019-06-18 19:00:00 19.8 17 Sudoeste 46 Sudoeste 0 1001.8 0.9 69
2019-06-18 18:00:00 19.7 14 Sur 45 Sur 0.2 1001.6 0.1 71
2019-06-18 17:00:00 18.5 16 Sur 43 Sur 0.8 1001.3 -0.2 80
2019-06-18 16:00:00 18.8 21 Sur 45 Sur 0.4 1000.9 -0.6 82
2019-06-18 15:00:00 19.5 14 Sur 28 Sur 0.4 1001.5 -0.5 71
2019-06-18 14:00:00 19.8 6 Sur 21 Sudeste 0 1001.5 -0.8 69
2019-06-18 13:00:00 19.4 10 Sur 27 Este 0 1001.5 -1.2 69
2019-06-18 12:00:00 18.5 10 Sur 24 Sudeste 0 1002 -0.5 72
2019-06-18 11:00:00 15.9 9 Sudeste 19 Sur 0 1002.3 -0.2 82
2019-06-18 10:00:00 14.8 8 Sudeste 28 Sudeste 0 1002.7 -0.3 86
2019-06-18 09:00:00 14.4 19 Sudeste 28 Sudeste 3 1002.5 -0.6 84
2019-06-18 08:00:00 14.7 13 Sudeste 24 Sudeste 2.2 1002.5 -0.4 85
2019-06-18 07:00:00 15.2 9 Sudeste 15 Sudeste 2 1003 -0.5 88
2019-06-18 06:00:00 15.9 3 Sur 10 Sudoeste 1 1003.1 -0.9 81
2019-06-18 05:00:00 16.2 4 Norte 13 Sur 1 1002.9 -1.4 87
2019-06-18 04:00:00 16.4 6 Sudoeste 13 Sudeste 0.2 1003.5 -1.8 84
2019-06-18 03:00:00 16.6 8 Sudeste 20 Sudeste 0 1004 -2.2 80
2019-06-18 02:00:00 16.2 15 Sudeste 23 Sudeste 0 1004.3 -2.2 80
2019-06-18 01:00:00 16.3 6 Sudeste 12 Sudeste 0 1005.3 -0.7 80
2019-06-18 00:00:00 16.3 4 Sur 14 Oeste 0 1006.2 0.1 80
2019-06-17 23:00:00 16.4 7 Oeste 12 Oeste 0 1006.5 0.1 80
2019-06-17 22:00:00 16.7 7 Oeste 11 Norte 0 1006 -- 80
2019-06-17 21:00:00 16.7 6 Noroeste 11 Norte 0 1006.1 -- 78
2019-06-17 20:00:00 17 6 Nordeste 15 Norte 0 1006.4 -1.5 78
2019-06-17 19:00:00 17.6 -- -- -- -- 0 -- -- 72
2019-06-17 18:00:00 17.2 -- -- -- -- 0 -- -- 74
2019-06-17 17:00:00 17.6 8 Norte 13 Norte 0 1007.9 -1 75
2019-06-17 16:00:00 17.6 10 Nordeste 17 Norte 0 1007.8 -0.9 76
2019-06-17 15:00:00 17 10 Norte 17 Oeste 0 1008.6 -0.3 79
2019-06-17 14:00:00 17.3 10 Norte 20 Norte 0 1008.9 0.1 73
2019-06-17 13:00:00 17 8 Norte 13 Norte 0 1008.7 -0.4 73
2019-06-17 12:00:00 16.9 6 Sudeste 16 Sudeste 0 1008.9 -0.5 73
2019-06-17 11:00:00 16.5 7 Este 15 Sur 0 1008.8 -1.1 74
2019-06-17 10:00:00 15.6 9 Sudeste 14 Sur 0 1009.1 -0.8 76
2019-06-17 09:00:00 14.3 9 Sudeste 15 Sudeste 0 1009.4 -0.5 86
2019-06-17 08:00:00 13.6 5 Sudeste 9 Este 0 1009.9 -0.2 90
2019-06-17 07:00:00 13.7 6 Este 9 Sudeste 0 1009.9 -0.9 90
2019-06-17 06:00:00 13.5 3 Sudeste 5 Sudeste 0 1009.9 -0.9 91
2019-06-17 05:00:00 13.9 4 Este 7 Este 0 1010.1 -1.3 90
2019-06-17 04:00:00 14.2 3 Oeste -- -- 0 1010.8 -0.7 88
2019-06-17 03:00:00 14.5 4 Norte 10 Norte 0 1010.8 -1 87
2019-06-17 02:00:00 14.8 6 Noroeste 9 Noroeste 0 1011.4 -0.6 85
2019-06-17 01:00:00 15 4 Noroeste 8 Norte 0 1011.5 -0.4 84
2019-06-17 00:00:00 15.3 6 Nordeste 18 Norte 0 1011.8 -0.2 85
2019-06-16 23:00:00 15.6 12 Norte 27 Norte 0 1012 0 84
2019-06-16 22:00:00 15.8 18 Norte 29 Norte 0 1011.9 -0.1 79
2019-06-16 21:00:00 16 15 Noroeste 26 Norte 0 1012 -0.3 77
2019-06-16 20:00:00 16.5 13 Norte 25 Noroeste 0 1012 -0.4 74
2019-06-16 19:00:00 17.2 15 Norte 24 Norte 0 1012 -0.6 70
2019-06-16 18:00:00 17.6 14 Norte 28 Noroeste 0 1012.3 -0.4 65
2019-06-16 17:00:00 18.1 16 Norte 26 Norte 0 1012.4 -0.5 69
2019-06-16 16:00:00 17.9 17 Norte 26 Noroeste 0 1012.6 -0.4 68
2019-06-16 15:00:00 18.2 15 Norte 24 Norte 0 1012.7 -0.7 69
2019-06-16 14:00:00 18 16 Norte 23 Norte 0 1012.9 -0.3 67
2019-06-16 13:00:00 17.9 12 Norte 20 Norte 0 1013 -0.3 59
2019-06-16 12:00:00 17.7 10 Noroeste 14 Norte 0 1013.4 0.2 56
2019-06-16 11:00:00 17.7 7 Nordeste 11 Este 0 1013.2 0 63
2019-06-16 10:00:00 17 4 Este 8 Este 0 1013.3 0.2 70
2019-06-16 09:00:00 15.3 3 Sudeste 6 Sudeste 0 1013.2 0.1 74
2019-06-16 08:00:00 13.4 0 Calma 8 Sudeste 0 1013.2 -0.2 82
2019-06-16 07:00:00 12 0 Calma 7 Sur 0 1013.1 -0.6 88
2019-06-16 06:00:00 12.7 4 Sur 10 Sur 0 1013.1 -1 86
2019-06-16 05:00:00 13.1 8 Sur 11 Sudeste 0 1013.4 -1.2 86
2019-06-16 04:00:00 13.3 0 Calma 5 Sudoeste 0 1013.7 -1.2 80
2019-06-16 03:00:00 13.9 3 Sudoeste 6 Sudoeste 0 1014.1 -0.7 77
2019-06-16 02:00:00 14.3 4 Sudoeste 10 Oeste 0 1014.6 0 77
2019-06-16 01:00:00 14.9 7 Oeste 13 Oeste 0 1014.9 0.7 80
2019-06-16 00:00:00 15.3 4 Oeste 17 Oeste 0 1014.8 0.7 81
2019-06-15 23:00:00 15.5 10 Oeste 18 Oeste 0 1014.6 0.5 78
2019-06-15 22:00:00 15.8 8 Oeste 22 Oeste 0 1014.2 0 75
2019-06-15 21:00:00 15.8 15 Oeste 30 Oeste 0 1014.1 -0.4 79
2019-06-15 20:00:00 16.5 19 Oeste 33 Oeste 0 1014.1 -0.4 75
2019-06-15 19:00:00 17 22 Oeste 31 Oeste 0 1014.2 0 71
2019-06-15 18:00:00 17 21 Oeste 27 Noroeste 0 1014.5 0.2 68
2019-06-15 17:00:00 17 18 Oeste 37 Noroeste 0 1014.5 0.2 70
2019-06-15 16:00:00 17.9 26 Oeste 38 Oeste 0 1014.2 0.1 68
2019-06-15 15:00:00 18.1 15 Oeste 30 Oeste 0 1014.3 0.6 61
2019-06-15 14:00:00 17.7 16 Oeste 26 Noroeste 0 1014.3 0.8 64
2019-06-15 13:00:00 16.6 14 Oeste 25 Oeste 0 1014.1 1 63
2019-06-15 12:00:00 17.2 9 Oeste 28 Oeste 0 1013.7 1.1 59
2019-06-15 11:00:00 16.9 13 Sudoeste 30 Sudoeste 0 1013.5 1.2 61
2019-06-15 10:00:00 16.3 13 Sudoeste 27 Sudoeste 0 1013.1 1.1 63
2019-06-15 09:00:00 14.2 10 Sudoeste 21 Sudoeste 0 1012.6 1.2 73
2019-06-15 08:00:00 13.7 17 Sudoeste 23 Sudoeste 0 1012.3 1.1 74
2019-06-15 07:00:00 12.8 13 Sudoeste 21 Sudoeste 0 1012 0.6 78
2019-06-15 06:00:00 13 12 Sudoeste 17 Sudoeste 0 1011.4 -0.1 79
2019-06-15 05:00:00 13.3 7 Sudoeste 15 Sudoeste 0 1011.2 -0.3 82
2019-06-15 04:00:00 13.7 9 Sudoeste 14 Sudoeste 0 1011.4 0.1 84
2019-06-15 03:00:00 13.8 9 Sudoeste 20 Sudoeste 0 1011.5 0.5 84
2019-06-15 02:00:00 14 12 Sudoeste 18 Sur 0 1011.5 1 86
2019-06-15 01:00:00 13.8 6 Sudoeste 21 Oeste 0 1011.3 1.5 83
2019-06-15 00:00:00 14.3 11 Sudoeste 24 Oeste 0 1011 1.5 84
2019-06-14 23:00:00 14.5 16 Oeste 31 Oeste 0.8 1010.5 1.3 81
2019-06-14 22:00:00 15.4 15 Oeste 27 Oeste 0 1009.8 0.9 77
2019-06-14 21:00:00 15.9 8 Oeste 26 Oeste 0 1009.5 0.9 73
2019-06-14 20:00:00 15.9 12 Oeste 24 Oeste 0 1009.2 1 73
2019-06-14 19:00:00 16.8 13 Oeste 26 Oeste 0 1008.9 0.9 70
2019-06-14 18:00:00 17.9 17 Oeste 27 Oeste 0 1008.6 0.8 63
2019-06-14 17:00:00 17.9 20 Oeste 30 Noroeste 0 1008.2 0.5 63
2019-06-14 16:00:00 18.5 17 Oeste 28 Oeste 0 1008 0.4 62
2019-06-14 15:00:00 17.9 15 Noroeste 24 Oeste 0 1007.8 0.4 61
2019-06-14 14:00:00 17.3 11 Noroeste 24 Oeste 0 1007.7 0.4 65
2019-06-14 13:00:00 17 12 Norte 20 Norte 0 1007.6 0.6 66
2019-06-14 12:00:00 17 10 Norte 17 Norte 0 1007.4 0.7 63
2019-06-14 11:00:00 16.6 8 Nordeste 13 Nordeste 0 1007.3 0.5 62
2019-06-14 10:00:00 15.9 6 Este 9 Este 0 1007 0.6 65
2019-06-14 09:00:00 13.7 4 Este 10 Sudeste 0 1006.7 0.7 72
2019-06-14 08:00:00 11.5 4 Sudeste 12 Sudeste 0 1006.8 0.6 79
2019-06-14 07:00:00 10.3 3 Sudeste 13 Sur 0 1006.4 0.2 84
2019-06-14 06:00:00 10.7 0 Calma 5 Sudeste 0 1006 -0.3 83
2019-06-14 05:00:00 11.4 3 Sur 6 Sur 0 1006.2 -0.5 81
2019-06-14 04:00:00 11.9 3 Sur 8 Sudeste 0 1006.2 -0.8 80
2019-06-14 03:00:00 12.7 0 Calma 9 Sur 0 1006.3 -0.9 76
2019-06-14 02:00:00 13 5 Sur 8 Sur 0 1006.7 -0.4 76
2019-06-14 01:00:00 13.3 4 Nordeste 8 Nordeste 0 1007 0.3 74
2019-06-14 00:00:00 13.6 4 Nordeste 9 Oeste 0 1007.2 0.7 73
2019-06-13 23:00:00 13.9 4 Noroeste 12 Noroeste 0 1007.1 0.8 71
2019-06-13 22:00:00 14.2 7 Noroeste 13 Noroeste 0 1006.7 0.5 68
2019-06-13 21:00:00 14.6 9 Noroeste 16 Oeste 0 1006.5 0.5 68
2019-06-13 20:00:00 15.1 7 Norte 18 Norte 0 1006.3 0.4 65
2019-06-13 19:00:00 15.5 10 Noroeste 21 Norte 0 1006.2 0.4 65
2019-06-13 18:00:00 15.9 11 Noroeste 22 Noroeste 0 1006 0.2 62
2019-06-13 17:00:00 16.2 11 Noroeste 22 Noroeste 0 1005.9 0.1 61
2019-06-13 16:00:00 16.1 12 Noroeste 24 Noroeste 0 1005.8 0.1 64
2019-06-13 15:00:00 16.3 12 Noroeste 22 Noroeste 0 1005.8 0 62
2019-06-13 14:00:00 16.5 11 Noroeste 20 Nordeste 0 1005.8 0.2 58
2019-06-13 13:00:00 15.7 12 Norte 19 Noroeste 0 1005.7 0.2 66
2019-06-13 12:00:00 14.8 5 Noroeste 12 Oeste 0 1005.8 0.5 70
2019-06-13 11:00:00 15.4 5 Noroeste 17 Norte 0 1005.6 0.3 67
2019-06-13 10:00:00 15.7 5 Nordeste 9 Nordeste 0 1005.5 0.3 70
2019-06-13 09:00:00 14.1 4 Este 7 Nordeste 0 1005.3 -0.2 72
2019-06-13 08:00:00 11.9 0 Calma 6 Sur 0 1005.3 -0.2 79
2019-06-13 07:00:00 11.3 0 Calma 6 Sur 0 1005.2 -0.5 80
2019-06-13 06:00:00 11.9 0 Calma 6 Sudeste 0 1005.5 -0.4 78
2019-06-13 05:00:00 12.4 0 Calma 6 Sur 0 1005.5 -0.9 76
2019-06-13 04:00:00 12.4 4 Sudeste 7 Sur 0 1005.7 -1 76
2019-06-13 03:00:00 12.8 3 Este 9 Nordeste 0 1005.9 -1.4 77
2019-06-13 02:00:00 13.2 6 Nordeste 10 Nordeste 0 1006.4 -1.1 72
2019-06-13 01:00:00 13.1 6 Norte 12 Norte 0 1006.7 -0.6 71
2019-06-13 00:00:00 13.4 5 Norte 12 Noroeste 0 1007.3 -0.2 69
2019-06-12 23:00:00 13.6 7 Norte 12 Norte 0 1007.5 0 67
2019-06-12 22:00:00 14 8 Norte 13 Norte 0 1007.3 -0.5 67
2019-06-12 21:00:00 14.4 8 Noroeste 17 Norte 0 1007.5 -0.6 66
2019-06-12 20:00:00 14.7 12 Norte 19 Noroeste 0 1007.5 -1 66
2019-06-12 19:00:00 15.3 10 Norte 21 Noroeste 0 1007.8 -0.9 64
2019-06-12 18:00:00 15.8 12 Noroeste 24 Noroeste 0 1008.1 -0.8 60
2019-06-12 17:00:00 15.9 14 Noroeste 23 Noroeste 0 1008.5 -0.8 62
2019-06-12 16:00:00 15.9 14 Noroeste 27 Noroeste 0 1008.7 -0.9 63
2019-06-12 15:00:00 16.3 15 Noroeste 27 Noroeste 0 1008.9 -1 59
2019-06-12 14:00:00 16.9 15 Noroeste 26 Noroeste 0 1009.3 -0.4 62
2019-06-12 13:00:00 17.4 14 Oeste 22 Oeste 0 1009.6 -0.2 61
2019-06-12 12:00:00 15.6 12 Noroeste 24 Oeste 0 1009.9 0 60
2019-06-12 11:00:00 14.9 9 Oeste 22 Oeste 0 1009.7 -0.2 65
2019-06-12 10:00:00 15.4 12 Noroeste 18 Noroeste 0 1009.8 -0.1 60
2019-06-12 09:00:00 14.7 9 Noroeste 22 Noroeste 0 1009.9 -0.1 59
2019-06-12 08:00:00 13 8 Noroeste 20 Noroeste 0 1009.9 -0.5 71
2019-06-12 07:00:00 12.8 11 Oeste 22 Oeste 0 1009.9 -1.2 76
2019-06-12 06:00:00 13 11 Noroeste 21 Oeste 0 1010 -1.6 72
2019-06-12 05:00:00 13.2 10 Noroeste 20 Noroeste 0 1010.4 -1.9 71
2019-06-12 04:00:00 13.2 11 Noroeste 33 Noroeste 0.2 1011.1 -1.6 70
2019-06-12 03:00:00 13.6 13 Noroeste 20 Noroeste 0 1011.6 -1.3 75
2019-06-12 02:00:00 13.6 10 Noroeste 20 Noroeste 0 1012.3 -0.7 76
2019-06-12 01:00:00 13.8 10 Noroeste 22 Norte 0 1012.7 -0.3 75
2019-06-12 00:00:00 13.9 15 Norte 36 Norte 0 1012.9 -0.6 71
2019-06-11 23:00:00 14.1 14 Noroeste 31 Norte 0 1013 -0.7 75
2019-06-11 22:00:00 14.3 15 Noroeste 29 Noroeste 0 1013 -0.9 74
2019-06-11 21:00:00 14.5 15 Noroeste 33 Norte 0 1013.5 -0.4 73
2019-06-11 20:00:00 15.4 14 Noroeste 30 Norte 0 1013.7 -0.4 70
2019-06-11 19:00:00 15.4 17 Norte 29 Norte 0 1013.9 -0.4 67
2019-06-11 18:00:00 16.1 17 Norte 31 Noroeste 0 1013.9 -0.4 64
2019-06-11 17:00:00 16.2 17 Norte 29 Norte 0 1014.1 -0.5 65
2019-06-11 16:00:00 16.4 16 Norte 30 Norte 0 1014.3 -0.1 63
2019-06-11 15:00:00 15.4 17 Norte 33 Norte 0 1014.3 0.1 66
2019-06-11 14:00:00 16.2 22 Norte 35 Norte 0 1014.6 1 63
2019-06-11 13:00:00 16 23 Norte 35 Norte 0 1014.4 1.1 62
2019-06-11 12:00:00 15.3 23 Norte 34 Norte 0 1014.2 1.2 65
2019-06-11 11:00:00 14.5 21 Norte 38 Norte 0 1013.6 1 64
2019-06-11 10:00:00 14.4 20 Norte 36 Norte 0 1013.3 1.2 69
2019-06-11 09:00:00 13.7 23 Norte 36 Noroeste 0 1013 1.2 66
2019-06-11 08:00:00 13.7 19 Norte 34 Norte 0 1012.6 0.5 68
2019-06-11 07:00:00 13 17 Norte 32 Norte 0 1012.1 -0.3 72
2019-06-11 06:00:00 13 17 Norte 35 Norte 0 1011.8 -0.4 76
2019-06-11 05:00:00 12.5 22 Norte 35 Norte 0 1012.1 -0.4 84
2019-06-11 04:00:00 12.1 20 Norte 38 Norte 0.8 1012.4 -0.1 86
2019-06-11 03:00:00 12 5 Noroeste 23 Noroeste 2.4 1012.2 -0.4 94
2019-06-11 02:00:00 12.8 13 Noroeste 27 Noroeste 0.2 1012.5 -0.2 82
2019-06-11 01:00:00 14.1 8 Norte 13 Noroeste 0 1012.5 0.3 76
2019-06-11 00:00:00 14.2 8 Norte 15 Norte 0 1012.6 0.1 72
2019-06-10 23:00:00 13.9 12 Norte 21 Norte 0 1012.7 -0.1 77
2019-06-10 22:00:00 14.5 7 Norte 13 Noroeste 0 1012.2 -0.4 75
2019-06-10 21:00:00 15 9 Noroeste 19 Noroeste 0 1012.5 -0.3 70
2019-06-10 20:00:00 15.2 12 Noroeste 22 Noroeste 0 1012.8 -0.2 66
2019-06-10 19:00:00 16 13 Noroeste 22 Oeste 0 1012.6 -0.9 65
2019-06-10 18:00:00 16.4 13 Oeste 23 Oeste 0 1012.8 -1 64
2019-06-10 17:00:00 16.9 11 Noroeste 25 Norte 0 1013 -1.2 64
2019-06-10 16:00:00 17.2 14 Noroeste 25 Oeste 0 1013.5 -1 61
2019-06-10 15:00:00 17.4 13 Oeste 23 Oeste 0 1013.8 -0.7 59
2019-06-10 14:00:00 17.3 12 Oeste 22 Noroeste 0 1014.2 -0.2 61
2019-06-10 13:00:00 16.9 14 Oeste 21 Oeste 0 1014.5 -0.1 65
2019-06-10 12:00:00 16.7 12 Oeste 22 Oeste 0 1014.5 -0.2 67
2019-06-10 11:00:00 15.9 7 Noroeste 17 Oeste 0 1014.4 -0.1 67
2019-06-10 10:00:00 15.8 4 Oeste 13 Sudeste 0 1014.6 0.1 70
2019-06-10 09:00:00 13.7 3 Este 11 Sudeste 0 1014.7 0.4 77
2019-06-10 08:00:00 11.7 4 Sudeste 8 Sur 0 1014.5 0.1 85
2019-06-10 07:00:00 10.8 5 Sur 8 Sur 0 1014.5 -0.3 87
2019-06-10 06:00:00 11.4 5 Sudeste 6 Sudeste 0 1014.3 -0.6 86
2019-06-10 05:00:00 12 3 Este 8 Oeste 0 1014.4 -0.8 85
2019-06-10 04:00:00 12.3 6 Oeste 9 Norte 0 1014.8 -0.9 84
2019-06-10 03:00:00 12.4 3 Noroeste 6 Noroeste 0 1014.9 -0.8 81
2019-06-10 02:00:00 12.7 3 Nordeste 13 Nordeste 0 1015.2 -0.4 80
2019-06-10 01:00:00 13.2 9 Norte 19 Nordeste 0 1015.7 0.7 81
2019-06-10 00:00:00 13.6 16 Norte 27 Norte 0 1015.7 1 76
2019-06-09 23:00:00 13.8 20 Norte 27 Norte 0 1015.6 1.2 71
2019-06-09 22:00:00 14.1 14 Norte 24 Noroeste 0 1015 0.6 70
2019-06-09 21:00:00 14.5 17 Norte 26 Norte 0 1014.7 0.5 70
2019-06-09 20:00:00 15 14 Norte 28 Noroeste 0 1014.4 0.4 67
2019-06-09 19:00:00 15.5 15 Norte 29 Norte 0 1014.4 0.6 66
2019-06-09 18:00:00 16.1 20 Norte 29 Norte 0 1014.2 0.4 68
2019-06-09 17:00:00 16.6 17 Norte 26 Norte 0 1014 0.1 66
2019-06-09 16:00:00 17.1 16 Norte 24 Norte 0 1013.8 -0.2 66
2019-06-09 15:00:00 16 8 Norte 19 Noroeste 0 1013.8 -0.2 68
2019-06-09 14:00:00 16.6 10 Nordeste 16 Norte 0 1013.9 0.1 70
2019-06-09 13:00:00 16.2 10 Norte 17 Norte 0 1014 0.6 72
2019-06-09 12:00:00 16.1 9 Nordeste 19 Nordeste 0 1014 0.9 71
2019-06-09 11:00:00 15.3 6 Este 13 Este 0 1013.8 0.7 75
2019-06-09 10:00:00 13.5 3 Nordeste 9 Este 0 1013.4 0.8 82
2019-06-09 09:00:00 12.4 4 Nordeste 7 Nordeste 0.4 1013.1 0.4 88
2019-06-09 08:00:00 12.2 0 Calma 5 Este 0 1013.1 0.1 83
2019-06-09 07:00:00 12 4 Este 8 Sudeste 0 1012.6 -0.5 84
2019-06-09 06:00:00 12.1 3 Sudeste 6 Este 0 1012.7 -0.5 84
2019-06-09 05:00:00 11.9 4 Sudeste 9 Este 0 1013 -0.5 82
2019-06-09 04:00:00 12.1 5 Este 9 Este 0 1013.1 -0.9 83
2019-06-09 03:00:00 12.2 4 Este 9 Nordeste 0 1013.2 -1.1 81
2019-06-09 02:00:00 12.6 6 Este 10 Este 0 1013.5 -1.1 78
2019-06-09 01:00:00 13.1 6 Nordeste 15 Nordeste 0 1014 -0.6 76
2019-06-09 00:00:00 13.6 9 Nordeste 13 Nordeste 0 1014.3 -0.2 72
2019-06-08 23:00:00 13.8 6 Norte 16 Norte 0 1014.6 0.1 78
2019-06-08 22:00:00 14.1 8 Norte 15 Norte 0 1014.6 0.1 75
2019-06-08 21:00:00 14.2 9 Norte 23 Norte 0 1014.5 -0.2 71
2019-06-08 20:00:00 14.2 14 Norte 24 Norte 0 1014.5 -1.1 73
2019-06-08 19:00:00 14.9 13 Norte 21 Nordeste 0 1014.5 -1.4 70
2019-06-08 18:00:00 15.2 13 Norte 20 Norte 0 1014.7 -1.2 69
2019-06-08 17:00:00 14.6 7 Norte 13 Norte 0 1015.6 -0.4 75
2019-06-08 16:00:00 14 7 Nordeste 13 Noroeste 0.2 1015.9 -0.4 73
2019-06-08 15:00:00 14.3 6 Noroeste 14 Noroeste 0 1015.9 -0.3 67
2019-06-08 14:00:00 15.2 7 Norte 12 Norte 0 1016 -0.4 61
2019-06-08 13:00:00 15.5 5 Norte 13 Nordeste 0 1016.3 -0.2 61
2019-06-08 12:00:00 15.1 7 Nordeste 10 Norte 0 1016.2 -0.1 64
2019-06-08 11:00:00 13.7 3 Sudeste 12 Sur 0 1016.4 0.3 69
2019-06-08 10:00:00 12.1 8 Sudeste 14 Sudeste 0 1016.5 0.5 75
2019-06-08 09:00:00 11.1 6 Sudeste 10 Sudeste 0 1016.3 0.2 79
2019-06-08 08:00:00 10.7 6 Sur 9 Sur 0 1016.1 -0.2 80
2019-06-08 07:00:00 10.5 4 Sur 11 Sur 0 1016 -0.1 80
2019-06-08 06:00:00 10.6 8 Sur 11 Sur 0 1016.1 -0.2 79
2019-06-08 05:00:00 11.2 7 Sur 10 Sur 0 1016.3 -0.2 77
2019-06-08 04:00:00 12 3 Sur 13 Sudoeste 0 1016.1 -0.5 74
2019-06-08 03:00:00 12.3 9 Sudoeste 14 Sudoeste 0 1016.3 -0.2 73
2019-06-08 02:00:00 12.6 10 Sudoeste 17 Sudoeste 0 1016.5 0.6 71
2019-06-08 01:00:00 12.7 9 Sudoeste 17 Sudoeste 0 1016.6 1.4 70
2019-06-08 00:00:00 13.2 11 Sudoeste 20 Oeste 0 1016.5 1.7 69
2019-06-07 23:00:00 13.4 10 Oeste 23 Oeste 0 1015.9 1.5 68
2019-06-07 22:00:00 13.9 11 Oeste 24 Oeste 0 1015.2 1.3 67
2019-06-07 21:00:00 14.6 17 Oeste 31 Sudoeste 0 1014.8 1.3 64
2019-06-07 20:00:00 15.3 14 Oeste 33 Noroeste 0 1014.4 1.3 62
2019-06-07 19:00:00 16 22 Oeste 40 Oeste 0 1013.9 1.3 59
2019-06-07 18:00:00 16.6 19 Oeste 45 Oeste 0 1013.5 1.6 56
2019-06-07 17:00:00 16.9 26 Oeste 42 Oeste 0 1013.1 1.8 57
2019-06-07 16:00:00 17.1 27 Oeste 42 Oeste 0 1012.6 2.2 59
2019-06-07 15:00:00 16.8 30 Oeste 42 Oeste 0 1011.9 2.4 61
2019-06-07 14:00:00 17.5 21 Oeste 42 Oeste 0 1011.3 2.6 58
2019-06-07 13:00:00 17 20 Oeste 43 Oeste 0 1010.4 2.4 59
2019-06-07 12:00:00 16.5 20 Oeste 37 Oeste 0 1009.5 2.5 63
2019-06-07 11:00:00 15.4 19 Oeste 40 Oeste 0 1008.7 2.5 65
2019-06-07 10:00:00 14.8 19 Oeste 38 Oeste 0 1008 3.1 67
2019-06-07 09:00:00 13.2 17 Oeste 38 Oeste 0 1007 2.9 71
2019-06-07 08:00:00 12.2 24 Oeste 56 Oeste 0.6 1006.2 3.1 69
2019-06-07 07:00:00 12.6 23 Oeste 47 Oeste 0 1004.9 2.7 68
2019-06-07 06:00:00 12.4 31 Oeste 55 Oeste 0 1004.1 2.8 71
2019-06-07 05:00:00 12.7 25 Oeste 50 Oeste 0 1003.1 2.3 73
2019-06-07 04:00:00 12.5 21 Oeste 42 Noroeste 0 1002.2 2.5 78
2019-06-07 03:00:00 11.3 22 Sudoeste 59 Sudoeste 0.6 1001.3 1.9 84
2019-06-07 02:00:00 11 22 Sudoeste 36 Sur 7.4 1000.8 1.9 87
2019-06-07 01:00:00 10.7 21 Sudoeste 41 Sudoeste 0.4 999.7 2.1 83
2019-06-07 00:00:00 10.5 24 Sudoeste 43 Sudoeste 5 999.4 3.1 91
2019-06-06 23:00:00 10.8 24 Sudoeste 53 Oeste 5 998.9 3.9 91
2019-06-06 22:00:00 11.8 29 Sudoeste 64 Oeste 0.2 997.6 4 81
2019-06-06 21:00:00 11.4 29 Sudoeste 61 Sudoeste 0.2 996.3 3.7 86
2019-06-06 20:00:00 12.2 28 Sudoeste 66 Oeste 0.2 995 3.3 77
2019-06-06 19:00:00 13.1 29 Oeste 70 Sudoeste 0 993.6 2.4 81
2019-06-06 18:00:00 14.5 33 Sudoeste 71 Sudoeste 0 992.6 2 68
2019-06-06 17:00:00 16.5 33 Sudoeste 78 Sudoeste 0 991.7 -0.9 67
2019-06-06 16:00:00 15.4 29 Sur 67 Sudeste 0.8 991.2 -3.4 81
2019-06-06 15:00:00 14.6 34 Sur 63 Sur 0.6 990.6 -5 82
2019-06-06 14:00:00 13.7 21 Sudeste 57 Sur 3 992.6 -5.2 83
2019-06-06 13:00:00 13.4 21 Sudeste 36 Sur 1.4 994.6 -5.1 83
2019-06-06 12:00:00 12.7 15 Sudeste 36 Sudeste 0 995.6 -5.5 82
2019-06-06 11:00:00 12.4 15 Sudeste 35 Sur 0.2 997.8 -4.4 80
2019-06-06 10:00:00 12.2 17 Sudeste 28 Sudeste 0 999.7 -3.5 80
2019-06-06 09:00:00 12.2 10 Sudeste 33 Sudeste 0.6 1001.1 -2.9 81
2019-06-06 08:00:00 12.2 13 Sudeste 28 Sudeste 0.2 1002.2 -2.7 82
2019-06-06 07:00:00 12.4 11 Sudeste 22 Sur 0 1003.2 -2.6 76
2019-06-06 06:00:00 12.6 10 Sudeste 23 Sudoeste 0 1004 -2.5 75
2019-06-06 05:00:00 12.6 10 Sur 24 Sudoeste 0 1004.9 -2 71
2019-06-06 04:00:00 12.5 10 Sur 21 Sur 0 1005.8 -1.9 74
2019-06-06 03:00:00 12.6 9 Sur 21 Sur 0 1006.5 -1.6 70
2019-06-06 02:00:00 12.6 9 Sur 20 Sur 0 1006.9 -1.1 70
2019-06-06 01:00:00 12.6 7 Sur 15 Sudoeste 0 1007.7 -0.3 68
2019-06-06 00:00:00 13.2 9 Sur 23 Sudoeste 0 1008.1 0.1 66
2019-06-05 23:00:00 13.6 11 Sudoeste 21 Sudoeste 0 1008 0 63
2019-06-05 22:00:00 14.1 12 Sudoeste 26 Sudoeste 0 1008 -0.2 64
2019-06-05 21:00:00 14.7 17 Oeste 35 Sudoeste 0 1008 -0.3 58
2019-06-05 20:00:00 15.2 17 Oeste 36 Oeste 0 1008 -0.7 61
2019-06-05 19:00:00 16.3 18 Oeste 38 Oeste 0 1008.2 -0.4 56
2019-06-05 18:00:00 16.5 25 Oeste 37 Noroeste 0 1008.3 -0.3 56
2019-06-05 17:00:00 16.4 22 Oeste 41 Oeste 0 1008.7 0 57
2019-06-05 16:00:00 16.7 24 Oeste 38 Noroeste 0 1008.6 0 54
2019-06-05 15:00:00 17.1 23 Oeste 42 Oeste 0 1008.6 0.2 46
2019-06-05 14:00:00 17.3 24 Oeste 37 Oeste 0 1008.7 0.4 57
2019-06-05 13:00:00 16.7 18 Oeste 46 Oeste 0 1008.6 0.6 57
2019-06-05 12:00:00 15.9 20 Oeste 35 Oeste 0 1008.4 1 63
2019-06-05 11:00:00 15.1 19 Oeste 32 Oeste 0 1008.3 1.2 70
2019-06-05 10:00:00 13.8 17 Noroeste 30 Noroeste 0 1008 1.4 72
2019-06-05 09:00:00 12.3 11 Sudoeste 22 Sudoeste 0.2 1007.4 1 84
2019-06-05 08:00:00 12 12 Oeste 35 Noroeste 2 1007.1 0.9 83
2019-06-05 07:00:00 12.4 8 Oeste 15 Oeste 0 1006.6 0.2 85
2019-06-05 06:00:00 12 12 Noroeste 41 Noroeste 0.4 1006.4 0 85
2019-06-05 05:00:00 12.3 12 Sudoeste 21 Sudoeste 1.4 1006.2 -0.2 87
2019-06-05 04:00:00 12.3 10 Oeste 23 Oeste 0.8 1006.4 -0.2 84
2019-06-05 03:00:00 12.5 14 Sudoeste 30 Sudoeste 0.2 1006.4 -0.3 83
2019-06-05 02:00:00 12.8 14 Sudoeste 30 Sudoeste 3.2 1006.4 -0.1 84
2019-06-05 01:00:00 13.2 13 Sudoeste 22 Oeste 0 1006.6 0.5 80
2019-06-05 00:00:00 13.8 14 Oeste 24 Oeste 0 1006.7 0.7 75
2019-06-04 23:00:00 14.3 11 Sudoeste 30 Oeste 0 1006.5 0.6 75
2019-06-04 22:00:00 14.8 14 Oeste 30 Oeste 0 1006.1 0.3 70
2019-06-04 21:00:00 15.4 14 Oeste 30 Oeste 0 1006 0.2 70
2019-06-04 20:00:00 16.1 14 Oeste 37 Oeste 0 1005.9 0.1 66
2019-06-04 19:00:00 16.9 22 Oeste 39 Oeste 0 1005.8 0.1 66
2019-06-04 18:00:00 17.9 20 Oeste 41 Oeste 0 1005.8 0.3 60
2019-06-04 17:00:00 18.6 26 Oeste 41 Oeste 0 1005.8 0.4 63
2019-06-04 16:00:00 18.6 25 Oeste 45 Oeste 0 1005.7 0.5 58
2019-06-04 15:00:00 18.4 26 Oeste 40 Noroeste 0 1005.5 0.6 63
2019-06-04 14:00:00 18.8 22 Oeste 40 Oeste 0 1005.4 1 62
2019-06-04 13:00:00 18.4 22 Oeste 38 Oeste 0 1005.2 1.3 63
2019-06-04 12:00:00 17.6 23 Oeste 38 Oeste 0 1004.9 1.5 67
2019-06-04 11:00:00 17.2 19 Oeste 35 Oeste 0 1004.4 2.3 69
2019-06-04 10:00:00 16.3 20 Oeste 43 Oeste 0 1003.9 3.1 71
2019-06-04 09:00:00 14.6 21 Oeste 42 Oeste 1.2 1003.4 2.3 84
2019-06-04 08:00:00 14.6 29 Oeste 68 Sudoeste 2.2 1002.1 0.3 89
2019-06-04 07:00:00 15.8 16 Sudoeste 33 Sur 0 1000.8 -1.6 79
2019-06-04 06:00:00 16 13 Sur 31 Sudoeste 0 1001.1 -2.3 79
2019-06-04 05:00:00 15.5 10 Sur 37 Sur 0 1001.8 -3 76
2019-06-04 04:00:00 15.2 15 Sur 33 Sur 0 1002.4 -3.3 75
2019-06-04 03:00:00 15 8 Sudeste 18 Sur 0 1003.4 -3.3 78
2019-06-04 02:00:00 15.4 10 Sur 27 Sur 0 1004.8 -2.3 74
2019-06-04 01:00:00 15.5 8 Sudeste 19 Sur 0 1005.7 -1.4 71
2019-06-04 00:00:00 15.6 8 Sur 21 Sur 0 1006.7 -0.6 79
2019-06-03 23:00:00 15.7 9 Oeste 23 Noroeste 0 1007.1 -0.5 81
2019-06-03 22:00:00 16 14 Oeste 23 Oeste 0 1007.1 -0.9 80
2019-06-03 21:00:00 16.5 5 Oeste 10 Noroeste 0 1007.3 -1.3 76
2019-06-03 20:00:00 16.6 9 Oeste 15 Oeste 0 1007.6 -1.1 72
2019-06-03 19:00:00 17.1 6 Oeste 15 Oeste 0 1008 -0.9 70
2019-06-03 18:00:00 16.4 9 Noroeste 19 Noroeste 0 1008.6 -0.7 79
2019-06-03 17:00:00 16.2 11 Noroeste 20 Noroeste 0 1008.7 -0.9 77
2019-06-03 16:00:00 16.9 10 Noroeste 17 Noroeste 0 1008.9 -1.3 75
2019-06-03 15:00:00 17.2 9 Noroeste 18 Oeste 0 1009.3 -1.1 76
2019-06-03 14:00:00 16.7 9 Norte 18 Norte 0 1009.6 -0.6 83
2019-06-03 13:00:00 15.7 10 Norte 20 Norte 0 1010.2 0 87
2019-06-03 12:00:00 15.3 15 Norte 21 Noroeste 0 1010.4 0.3 88
2019-06-03 11:00:00 15.3 12 Norte 21 Norte 0 1010.2 0.3 97
2019-06-03 10:00:00 14.9 13 Norte 18 Norte 0.4 1010.2 0.5 98
2019-06-03 09:00:00 14.8 13 Norte 22 Norte 0.8 1010.1 0.6 99
2019-06-03 08:00:00 14.8 15 Norte 22 Norte 0.2 1009.9 0.4 99
2019-06-03 07:00:00 14.8 17 Norte 22 Norte 0.4 1009.7 0 99
2019-06-03 06:00:00 14.9 10 Norte 20 Noroeste 0.6 1009.5 -0.8 98
2019-06-03 05:00:00 15.7 0 Calma 9 Sudeste 0 1009.5 -1.2 96
2019-06-03 04:00:00 15.3 3 Nordeste 16 Norte 0.2 1009.7 -1.1 98
2019-06-03 03:00:00 15.2 13 Norte 20 Norte 0.6 1010.3 -0.5 98
2019-06-03 02:00:00 15.4 13 Norte 21 Norte 3 1010.7 -0.1 97
2019-06-03 01:00:00 15.9 10 Norte 15 Norte 1 1010.8 0.5 96
2019-06-03 00:00:00 17.3 10 Oeste 19 Noroeste 0 1010.8 0.9 90
2019-06-02 23:00:00 17.8 12 Oeste 28 Oeste 0 1010.8 1.1 87
2019-06-02 22:00:00 17.8 21 Oeste 31 Oeste 0 1010.3 0.3 86
2019-06-02 21:00:00 18.2 19 Oeste 33 Oeste 0 1009.9 -0.1 83
2019-06-02 20:00:00 19.1 16 Oeste 34 Oeste 0 1009.7 -0.5 80
2019-06-02 19:00:00 19.4 24 Oeste 41 Oeste 0 1010 -0.2 78
2019-06-02 18:00:00 19.5 22 Oeste 39 Oeste 0 1010 -0.2 77
2019-06-02 17:00:00 20.1 16 Oeste 30 Oeste 0 1010.2 -0.4 73
2019-06-02 16:00:00 20.3 14 Oeste 24 Oeste 0 1010.2 -0.6 69
2019-06-02 15:00:00 20.5 13 Oeste 20 Noroeste 0 1010.2 -0.5 66
2019-06-02 14:00:00 19.9 8 Norte 18 Norte 0 1010.6 0.2 69
2019-06-02 13:00:00 19.9 7 Oeste 22 Oeste 0 1010.8 0.6 63
2019-06-02 12:00:00 18.9 7 Nordeste 12 Nordeste 0 1010.7 0.8 70
2019-06-02 11:00:00 17.4 4 Nordeste 11 Sudeste 0 1010.4 0.7 77
2019-06-02 10:00:00 16.1 5 Sudeste 9 Sudeste 0 1010.2 1.1 83
2019-06-02 09:00:00 14.6 3 Sudoeste 16 Oeste 0 1009.9 0.7 88
2019-06-02 08:00:00 14.5 6 Oeste 15 Oeste 0 1009.7 0.3 92
2019-06-02 07:00:00 14.2 3 Oeste 12 Oeste 0 1009.1 -0.3 94
2019-06-02 06:00:00 14.5 5 Noroeste 15 Oeste 0 1009.2 -0.9 95
2019-06-02 05:00:00 15.1 10 Oeste 22 Oeste 0 1009.4 -1.4 95
2019-06-02 04:00:00 15.7 4 Sur 15 Sudeste 0 1009.4 -1.5 93
2019-06-02 03:00:00 15.4 9 Sudeste 15 Sudeste 0 1010.1 -1 96
2019-06-02 02:00:00 15.1 0 Calma 11 Oeste 0 1010.8 0 97
2019-06-02 01:00:00 15.4 3 Norte 11 Noroeste 0 1010.9 0.4 95
2019-06-02 00:00:00 15.6 5 Oeste 17 Oeste 0 1011.1 1 94
2019-06-01 23:00:00 16.2 6 Oeste 13 Noroeste 0 1010.8 0.7 92
2019-06-01 22:00:00 17.5 7 Oeste 17 Oeste 0 1010.5 0.7 84
2019-06-01 21:00:00 19.7 9 Oeste 17 Noroeste 0 1010.1 0 70
2019-06-01 20:00:00 20.4 6 Oeste 26 Oeste 0 1010.1 -0.4 65
2019-06-01 19:00:00 22.7 4 Nordeste 10 Norte 0 1009.8 -1.2 56
2019-06-01 18:00:00 25.3 7 Norte 12 Norte 0 1010.1 -0.9 38
2019-06-01 17:00:00 24.2 8 Noroeste 19 Noroeste 0 1010.5 -0.9 45
2019-06-01 16:00:00 23 10 Oeste 26 Noroeste 0 1011 -0.1 54
2019-06-01 15:00:00 22.4 13 Noroeste 25 Noroeste 0 1011 -0.1 54
2019-06-01 14:00:00 23.5 9 Noroeste 23 Oeste 0 1011.4 0.4 51
2019-06-01 13:00:00 25.7 7 Nordeste 11 Nordeste 0 1011.1 0.1 45
2019-06-01 12:00:00 24.6 5 Nordeste 9 Nordeste 0 1011.1 0.3 48
2019-06-01 11:00:00 23.8 5 Nordeste 8 Nordeste 0 1011 0.2 50
2019-06-01 10:00:00 22.3 4 Nordeste 6 Este 0 1011 0.2 53
2019-06-01 09:00:00 20.3 3 Nordeste 4 Nordeste 0 1010.8 0.2 60
2019-06-01 08:00:00 18.8 4 Sudeste 12 Sudeste 0 1010.8 0.1 62
2019-06-01 07:00:00 17.7 2 Sudeste 7 Sudeste 0 1010.8 0.1 67
2019-06-01 06:00:00 17.8 4 Sudoeste 10 Noroeste 0 1010.6 -0.3 72
2019-06-01 05:00:00 18.7 5 Oeste 13 Oeste 0 1010.7 -0.2 66
2019-06-01 04:00:00 19.5 5 Oeste 17 Oeste 0 1010.7 -0.7 63
2019-06-01 03:00:00 20.4 8 Oeste 17 Oeste 0 1010.9 -0.8 56
2019-06-01 02:00:00 21.7 0 Calma 11 Sur 0 1010.9 -0.8 51
2019-06-01 01:00:00 22.8 5 Sur 15 Sudeste 0 1011.4 -0.3 46
2019-06-01 00:00:00 23.2 0 Calma 8 Sudeste 0 1011.7 0 45
2019-05-31 23:00:00 24.1 4 Sur 10 Sur 0 1011.7 0.1 42
2019-05-31 22:00:00 24 3 Sudeste 9 Oeste 0 1011.7 -0.1 40
2019-05-31 21:00:00 24.6 4 Oeste 11 Oeste 0 1011.7 -0.2 37
2019-05-31 20:00:00 24.9 3 Norte 15 Noroeste 0 1011.6 -0.4 38
2019-05-31 19:00:00 25.7 10 Oeste 21 Oeste 0 1011.8 -0.4 37
2019-05-31 18:00:00 27.1 11 Oeste 26 Noroeste 0 1011.9 -0.4 36
2019-05-31 17:00:00 28.2 15 Oeste 28 Oeste 0 1012 -0.1 33
2019-05-31 16:00:00 29.3 15 Oeste 23 Oeste 0 1012.2 0.2 32
2019-05-31 15:00:00 28.8 6 Oeste 21 Oeste 0 1012.3 -- 33
2019-05-31 14:00:00 30 8 Norte 15 Norte 0 1012.1 0.3 36
2019-05-31 13:00:00 32.5 7 Oeste -- -- -- 1012 0.2 30
2019-05-31 12:00:00 -- -- -- -- -- -- -- -- --
2019-05-31 11:00:00 29.9 12 Sur 22 Sur 0 1011.8 -0.3 33
2019-05-31 10:00:00 26.2 8 Sudeste 17 Sudeste 0 1011.8 -0.3 46
2019-05-31 09:00:00 22.3 9 Sudeste 16 Sudeste 0 1012 -0.1 53
2019-05-31 08:00:00 19.5 12 Sudeste 18 Sudeste 0 1012.1 -0.6 58
2019-05-31 07:00:00 18.1 13 Sudeste 21 Sudeste 0 1012.1 -0.8 61
2019-05-31 06:00:00 16.6 7 Sudeste 12 Sudeste 0 1012.1 -1.6 75
2019-05-31 05:00:00 17 5 Sudeste 9 Sudeste 0 1012.7 -1.6 78
2019-05-31 04:00:00 17 4 Sudeste 7 Sudeste 0 1012.9 -1.7 81
2019-05-31 03:00:00 17.3 3 Sudeste 4 Sudeste 0 1013.7 -1.3 83
2019-05-31 02:00:00 18 0 Calma 7 Sudeste 0 1014.3 -0.6 77
2019-05-31 01:00:00 18.5 2 Sudeste 3 Este 0 1014.6 0.2 78
2019-05-31 00:00:00 19.7 0 Calma 5 Este 0 1015 0.8 70
2019-05-30 23:00:00 20.6 0 Calma 7 Oeste 0 1014.9 0.6 65
2019-05-30 22:00:00 21.8 2 Oeste 8 Sudoeste 0 1014.4 -0.4 59
2019-05-30 21:00:00 23.4 5 Oeste 13 Oeste 0 1014.2 -0.9 52
2019-05-30 20:00:00 25 10 Oeste 13 Oeste 0 1014.3 -1.2 47
2019-05-30 19:00:00 25.4 4 Nordeste 15 Noroeste 0 1014.8 -0.8 47
2019-05-30 18:00:00 26.1 8 Noroeste 22 Norte 0 1015.1 -0.6 39
2019-05-30 17:00:00 25.2 10 Noroeste 15 Noroeste 0 1015.5 -0.5 47
2019-05-30 16:00:00 25.4 12 Norte 18 Norte 0 1015.6 -0.4 48
2019-05-30 15:00:00 25.4 9 Norte 14 Noroeste 0 1015.7 -0.5 48
2019-05-30 14:00:00 24.1 8 Norte 12 Norte 0 1016 -0.4 51
2019-05-30 13:00:00 22.8 4 Nordeste 8 Nordeste 0 1016 -0.5 56
2019-05-30 12:00:00 23 6 Nordeste 11 Nordeste 0 1016.2 -0.2 57
2019-05-30 11:00:00 22.3 7 Este 10 Este 0 1016.4 0.2 54
2019-05-30 10:00:00 19.8 4 Este 10 Sudeste 0 1016.5 0.5 62
2019-05-30 09:00:00 17 4 Este 8 Este 0 1016.4 0.5 77
2019-05-30 08:00:00 15.2 4 Sudeste 6 Sudeste 0 1016.2 0.4 85
2019-05-30 07:00:00 14 2 Este 6 Sudeste 0 1016 -0.1 90
2019-05-30 06:00:00 14.5 0 Calma 5 Sudeste 0 1015.9 -0.5 88
2019-05-30 05:00:00 15.1 4 Sudeste 9 Sur 0 1015.8 -1.1 88
2019-05-30 04:00:00 15 5 Sudeste 12 Sudeste 0 1016.1 -1.1 87
2019-05-30 03:00:00 15.2 5 Sudeste 8 Sudeste 0 1016.4 -0.9 87
2019-05-30 02:00:00 15.3 4 Sudeste 7 Sudeste 0 1016.9 -0.3 88
2019-05-30 01:00:00 15.6 0 Calma 4 Este 0 1017.2 0.5 85
2019-05-30 00:00:00 15.8 0 Calma 7 Oeste 0 1017.3 0.6 82
2019-05-29 23:00:00 16.4 3 Oeste 15 Sudoeste 0 1017.2 0.9 80
2019-05-29 22:00:00 16.4 10 Sudoeste 21 Oeste 0 1016.7 0.2 81
2019-05-29 21:00:00 17.1 14 Oeste 22 Oeste 0 1016.7 -0.2 77
2019-05-29 20:00:00 17.5 10 Oeste 23 Noroeste 0 1016.3 -0.9 76
2019-05-29 19:00:00 17.1 13 Noroeste 26 Norte 0 1016.5 -0.7 77
2019-05-29 18:00:00 17.8 7 Noroeste 23 Noroeste 0 1016.9 -0.8 74
2019-05-29 17:00:00 18.1 9 Noroeste 22 Oeste 0 1017.2 -0.8 76
2019-05-29 16:00:00 18.1 12 Noroeste 28 Nordeste 0 1017.2 -1.1 73
2019-05-29 15:00:00 17.8 12 Norte 34 Norte 0 1017.7 -0.7 75
2019-05-29 14:00:00 17.3 21 Norte 33 Norte 0 1018 -0.3 78
2019-05-29 13:00:00 17.2 23 Norte 31 Norte 0 1018.3 -0.2 77
2019-05-29 12:00:00 17.1 15 Norte 22 Norte 0 1018.4 -0.1 78
2019-05-29 11:00:00 16.8 9 Norte 13 Norte 0 1018.3 0.1 75
2019-05-29 10:00:00 15.6 5 Nordeste 10 Este 0 1018.5 0.5 74
2019-05-29 09:00:00 13.8 4 Este 9 Este 0 1018.5 0.3 78
2019-05-29 08:00:00 12.4 6 Sudeste 10 Sudeste 0 1018.2 -0.1 79
2019-05-29 07:00:00 11.4 6 Sudeste 9 Sudeste 0 1018 -0.3 83
2019-05-29 06:00:00 11.8 7 Sudeste 11 Sudeste 0 1018.2 -0.1 83
2019-05-29 05:00:00 12.3 7 Sudeste 14 Este 0 1018.3 -0.5 84
2019-05-29 04:00:00 12.5 8 Este 18 Este 0 1018.3 -0.4 84
2019-05-29 03:00:00 12.9 12 Este 21 Este 0 1018.3 -0.2 84
2019-05-29 02:00:00 13.1 11 Nordeste 17 Nordeste 0 1018.8 0.5 84
2019-05-29 01:00:00 13.4 12 Nordeste 22 Nordeste 0 1018.7 0.7 83
2019-05-29 00:00:00 13.6 14 Nordeste 23 Nordeste 0 1018.5 1.2 82
2019-05-28 23:00:00 13.8 15 Nordeste 35 Norte 0 1018.3 1.1 82
2019-05-28 22:00:00 14.2 18 Nordeste 36 Norte 0 1018 0.9 82
2019-05-28 21:00:00 14.4 20 Norte 34 Norte 0 1017.3 0.3 81
2019-05-28 20:00:00 14.6 19 Norte 42 Norte 0 1017.2 0.4 80
2019-05-28 19:00:00 14.9 30 Norte 44 Norte 0 1017.1 0.3 78
2019-05-28 18:00:00 15.6 28 Norte 42 Norte 0 1017 -0.1 76
2019-05-28 17:00:00 15.9 28 Norte 40 Norte 0 1016.8 -0.1 74
2019-05-28 16:00:00 16.1 28 Norte 40 Norte 0 1016.8 0 73
2019-05-28 15:00:00 16.1 27 Norte 37 Norte 0 1017.1 0.6 73
2019-05-28 14:00:00 16.6 23 Norte 31 Norte 0 1016.9 0.5 72
2019-05-28 13:00:00 16.2 23 Norte 29 Norte 0 1016.8 0.8 72
2019-05-28 12:00:00 16.1 19 Norte 26 Norte 0 1016.5 0.9 73
2019-05-28 11:00:00 15.9 10 Norte 15 Norte 0 1016.4 1.2 75
2019-05-28 10:00:00 15.5 5 Norte 13 Nordeste 0 1016 1.2 75
2019-05-28 09:00:00 13.5 5 Este 10 Nordeste 0 1015.6 1.1 85
2019-05-28 08:00:00 12.4 3 Este 11 Este 0 1015.2 0.8 86
2019-05-28 07:00:00 12.2 7 Este 9 Este 0 1014.8 0.4 89
2019-05-28 06:00:00 12.1 3 Este 8 Este 0 1014.5 0.1 88
2019-05-28 05:00:00 12.6 5 Este 10 Este 0 1014.4 -0.3 86
2019-05-28 04:00:00 12.8 5 Este 11 Este 0 1014.4 -0.4 86
2019-05-28 03:00:00 12.9 8 Nordeste 17 Nordeste 0 1014.4 -0.4 85
2019-05-28 02:00:00 13.2 13 Nordeste 21 Nordeste 0 1014.7 0.1 84
2019-05-28 01:00:00 13.2 14 Nordeste 22 Nordeste 0 1014.8 0.6 82
2019-05-28 00:00:00 13.3 12 Nordeste 24 Nordeste 0 1014.8 1 82
2019-05-27 23:00:00 13.4 16 Nordeste 29 Norte 0 1014.6 0.9 81
2019-05-27 22:00:00 13.8 15 Norte 33 Nordeste 0 1014.2 0.7 80
2019-05-27 21:00:00 14.1 21 Norte 35 Norte 0 1013.8 0.2 78
2019-05-27 20:00:00 14.4 27 Norte 37 Norte 0 1013.7 -0.1 74
2019-05-27 19:00:00 14.7 28 Norte 38 Norte 0 1013.5 0 74
2019-05-27 18:00:00 15.3 26 Norte 37 Norte 0 1013.6 -0.2 71
2019-05-27 17:00:00 15.8 27 Norte 37 Norte 0 1013.8 -0.3 73
2019-05-27 16:00:00 16 24 Norte 32 Norte 0 1013.5 -0.6 75
2019-05-27 15:00:00 15.2 22 Norte 33 Norte 0 1013.8 0 80
2019-05-27 14:00:00 14.5 20 Norte 34 Norte 0 1014.1 0.5 85
2019-05-27 13:00:00 14.1 28 Norte 37 Norte 0 1014.1 0.5 93
2019-05-27 12:00:00 14.7 16 Norte 22 Norte 0 1013.8 0.9 92
2019-05-27 11:00:00 14.4 9 Nordeste 25 Norte 0 1013.6 1.2 95
2019-05-27 10:00:00 13.8 15 Norte 28 Norte 0.2 1013.6 1.3 98
2019-05-27 09:00:00 13.7 23 Norte 32 Norte 0 1012.9 0.6 98
2019-05-27 08:00:00 14.2 8 Noroeste 12 Noroeste 0.2 1012.4 0 98
2019-05-27 07:00:00 14 5 Noroeste 8 Oeste 0 1012.3 -0.7 97
2019-05-27 06:00:00 14 3 Sudeste 9 Sudeste 0.2 1012.3 -1.3 96
2019-05-27 05:00:00 13.9 6 Sudeste 10 Sur 0.2 1012.4 -1.8 95
2019-05-27 04:00:00 14 4 Sudeste 7 Oeste 0 1013 -1.8 94
2019-05-27 03:00:00 14.1 4 Oeste 6 Oeste 0 1013.6 -1.6 91
2019-05-27 02:00:00 14 3 Oeste 6 Oeste 0 1014.2 -0.8 90
2019-05-27 01:00:00 14.1 4 Noroeste 12 Norte 0 1014.8 -0.5 89
2019-05-27 00:00:00 14.3 4 Norte 12 Norte 0 1015.2 -0.2 86
2019-05-26 23:00:00 14.2 5 Norte 17 Noroeste 0 1015 -0.4 85
2019-05-26 22:00:00 14.5 8 Norte 23 Noroeste 0 1015.3 -0.2 83
2019-05-26 21:00:00 14.7 12 Norte 22 Norte 0 1015.4 -0.5 82
2019-05-26 20:00:00 15.3 12 Noroeste 22 Norte 0 1015.4 -0.9 79
2019-05-26 19:00:00 15.4 14 Noroeste 23 Noroeste 0 1015.5 -1 78
2019-05-26 18:00:00 16.2 14 Norte 27 Norte 0 1015.9 -0.7 75
2019-05-26 17:00:00 16.7 16 Norte 26 Noroeste 0 1016.3 -0.7 71
2019-05-26 16:00:00 16.8 14 Norte 25 Norte 0 1016.5 -0.7 71
2019-05-26 15:00:00 17.1 17 Norte 26 Norte 0 1016.6 -0.7 69
2019-05-26 14:00:00 16.4 15 Norte 26 Noroeste 0 1017 -0.5 72
2019-05-26 13:00:00 16.8 17 Norte 24 Norte 0 1017.2 -0.2 73
2019-05-26 12:00:00 16.6 15 Norte 21 Norte 0 1017.3 -0.1 69
2019-05-26 11:00:00 15.7 12 Norte 18 Norte 0 1017.5 0.4 74
2019-05-26 10:00:00 14.9 8 Nordeste 21 Nordeste 0 1017.4 0.4 78
2019-05-26 09:00:00 14.1 12 Norte 18 Norte 0 1017.4 0.4 85
2019-05-26 08:00:00 13.9 7 Nordeste 13 Norte 0 1017.1 -0.3 88
2019-05-26 07:00:00 13.8 6 Nordeste 11 Nordeste 0 1017 -0.4 87
2019-05-26 06:00:00 13.8 8 Nordeste 15 Nordeste 0 1017 -0.5 88
2019-05-26 05:00:00 13.9 6 Norte 14 Nordeste 0 1017.4 -0.7 83
2019-05-26 04:00:00 14 9 Nordeste 18 Nordeste 0 1017.4 -0.9 82
2019-05-26 03:00:00 13.9 9 Nordeste 17 Este 0 1017.5 -1.3 82
2019-05-26 02:00:00 13.8 9 Nordeste 21 Nordeste 0 1018.1 -0.4 82
2019-05-26 01:00:00 13.6 13 Nordeste 23 Nordeste 0 1018.3 0.2 85
2019-05-26 00:00:00 13.8 10 Nordeste 25 Norte 0 1018.8 1 87
2019-05-25 23:00:00 14 16 Norte 33 Norte 0 1018.5 0.9 85
2019-05-25 22:00:00 14.2 15 Norte 33 Norte 0 1018.1 0.5 82
2019-05-25 21:00:00 14.6 21 Norte 35 Norte 0 1017.8 0.3 80
2019-05-25 20:00:00 14.7 11 Norte 40 Norte 0 1017.6 0.1 80
2019-05-25 19:00:00 15.4 23 Norte 38 Norte 0 1017.6 0 78
2019-05-25 18:00:00 16 25 Norte 41 Norte 0 1017.5 -0.5 75
2019-05-25 17:00:00 16.5 23 Norte 42 Norte 0 1017.5 -0.8 74
2019-05-25 16:00:00 16.4 29 Norte 41 Norte 0 1017.6 -0.8 74
2019-05-25 15:00:00 16.1 29 Norte 40 Norte 0 1018 -0.5 75
2019-05-25 14:00:00 16.3 28 Norte 40 Norte 0 1018.3 -0.3 75
2019-05-25 13:00:00 16.4 22 Norte 31 Norte 0 1018.4 0.1 70
2019-05-25 12:00:00 15.9 15 Norte 25 Norte 0 1018.5 0.6 71
2019-05-25 11:00:00 15.6 13 Norte 23 Norte 0 1018.6 0.9 73
2019-05-25 10:00:00 16 10 Nordeste 18 Nordeste 0 1018.3 0.9 72
2019-05-25 09:00:00 14.1 7 Nordeste 19 Este 0 1017.9 0.7 81
2019-05-25 08:00:00 13.5 12 Nordeste 25 Nordeste 0 1017.7 0.4 85
2019-05-25 07:00:00 13.1 10 Nordeste 22 Nordeste 0 1017.4 -0.1 87
2019-05-25 06:00:00 13.2 14 Nordeste 24 Nordeste 0 1017.2 -0.4 88
2019-05-25 05:00:00 13.3 15 Norte 26 Nordeste 0 1017.3 -0.4 88
2019-05-25 04:00:00 13.4 14 Nordeste 27 Nordeste 0 1017.5 -0.6 89
2019-05-25 03:00:00 13.3 15 Nordeste 25 Nordeste 0 1017.6 -0.2 92
2019-05-25 02:00:00 13.3 13 Nordeste 22 Norte 0 1017.7 0.5 92
2019-05-25 01:00:00 13.5 10 Nordeste 22 Nordeste 0 1018.1 1.4 90
2019-05-25 00:00:00 13.8 14 Nordeste 26 Nordeste 0 1017.8 1.4 89
2019-05-24 23:00:00 14 15 Norte 28 Norte 0 1017.2 1.2 89
2019-05-24 22:00:00 14.1 16 Nordeste 32 Norte 0 1016.7 1 88
2019-05-24 21:00:00 14.4 25 Norte 36 Norte 0 1016.4 0.4 87
2019-05-24 20:00:00 14.7 26 Norte 44 Norte 0 1016 -0.1 86
2019-05-24 19:00:00 15 20 Norte 41 Norte 0 1015.7 -0.6 87
2019-05-24 18:00:00 15.4 31 Norte 45 Norte 0 1016 -0.8 84
2019-05-24 17:00:00 16.1 25 Norte 35 Norte 0 1016.1 -0.6 83
2019-05-24 16:00:00 16.3 22 Norte 32 Norte 0 1016.3 -0.3 83
2019-05-24 15:00:00 15.8 21 Norte 32 Norte 0 1016.8 0.5 83
2019-05-24 14:00:00 15.9 20 Norte 32 Norte 0 1016.7 0.5 79
2019-05-24 13:00:00 15.7 21 Norte 29 Norte 0 1016.6 0.5 78
2019-05-24 12:00:00 15.6 16 Norte 26 Noroeste 0 1016.3 0.3 76
2019-05-24 11:00:00 15.3 13 Noroeste 27 Norte 0 1016.2 0.7 75
2019-05-24 10:00:00 14.8 10 Norte 19 Norte 0 1016.1 1.1 81
2019-05-24 09:00:00 13.9 14 Norte 20 Norte 0 1016 1.5 86
2019-05-24 08:00:00 13.4 9 Norte 14 Norte 0 1015.5 1 84
2019-05-24 07:00:00 13.1 4 Nordeste 15 Nordeste 0 1015 0.5 91
2019-05-24 06:00:00 13.1 5 Nordeste 12 Este 0 1014.5 -0.3 90
2019-05-24 05:00:00 13.2 9 Norte 13 Norte 0 1014.5 -0.7 87
2019-05-24 04:00:00 13.3 8 Norte 13 Norte 0 1014.5 -0.9 89
2019-05-24 03:00:00 13.4 4 Noroeste 10 Noroeste 0 1014.8 -0.6 90
2019-05-24 02:00:00 13.7 6 Norte 11 Norte 0 1015.2 0 88
2019-05-24 01:00:00 13.9 5 Norte 13 Noroeste 0 1015.4 0.7 88
2019-05-24 00:00:00 14 6 Norte 12 Norte 0 1015.4 0.6 88
2019-05-23 23:00:00 14.1 8 Norte 15 Noroeste 0 1015.2 0.3 87
2019-05-23 22:00:00 14.3 7 Noroeste 15 Oeste 0 1014.7 0.1 84
2019-05-23 21:00:00 14.9 9 Oeste 19 Oeste 0 1014.8 0.1 83
2019-05-23 20:00:00 15.9 13 Oeste 19 Oeste 0 1014.9 0.6 79
2019-05-23 19:00:00 16.4 12 Oeste 24 Oeste 0 1014.6 0.8 74
2019-05-23 18:00:00 16.7 18 Noroeste 28 Oeste 0 1014.7 0.8 75
2019-05-23 17:00:00 17.8 16 Oeste 28 Noroeste 0 1014.3 0.4 69
2019-05-23 16:00:00 18 15 Oeste 28 Oeste 0 1013.8 -0.2 68
2019-05-23 15:00:00 17.7 17 Oeste 30 Oeste 0 1013.9 0.1 67
2019-05-23 14:00:00 17.6 20 Oeste 34 Oeste 0 1013.9 0.4 68
2019-05-23 13:00:00 17.4 22 Oeste 33 Noroeste 0 1014 1.1 68
2019-05-23 12:00:00 16.9 21 Oeste 31 Oeste 0 1013.8 1.6 72
2019-05-23 11:00:00 16.9 14 Oeste 31 Oeste 0 1013.5 2.2 71
2019-05-23 10:00:00 14.2 19 Oeste 33 Oeste 0 1012.9 2 89
2019-05-23 09:00:00 14.3 16 Oeste 27 Oeste 0 1012.2 1.5 93
2019-05-23 08:00:00 14.7 6 Sudoeste 14 Sudoeste 0 1011.3 0.3 86
2019-05-23 07:00:00 14.7 8 Sudoeste 14 Sudoeste 0 1010.9 -0.1 84
2019-05-23 06:00:00 14.6 4 Sur 9 Sudoeste 0 1010.7 -0.8 80
2019-05-23 05:00:00 14.5 0 Calma 12 Sudoeste 0 1011 -0.7 81
2019-05-23 04:00:00 14.4 6 Sudoeste 14 Sudoeste 0 1011 -0.9 74
2019-05-23 03:00:00 14 2 Sudoeste 5 Sur 0 1011.5 -0.4 82
2019-05-23 02:00:00 14.1 4 Sudeste 7 Sudeste 0 1011.7 0.1 82
2019-05-23 01:00:00 14.4 2 Sur 11 Sur 0 1011.9 0.6 84
2019-05-23 00:00:00 14.2 5 Sur 9 Sudoeste 0 1011.9 1 88
2019-05-22 23:00:00 14.2 2 Sudeste 25 Oeste 0 1011.6 1 89
2019-05-22 22:00:00 14.7 9 Oeste 27 Oeste 0 1011.3 0.9 87
2019-05-22 21:00:00 15.5 12 Oeste 30 Oeste 0 1010.9 0.6 83
2019-05-22 20:00:00 16.6 20 Oeste 32 Oeste 0 1010.6 0.4 77
2019-05-22 19:00:00 17.9 20 Oeste 32 Oeste 0 1010.4 0.1 63
2019-05-22 18:00:00 19.3 15 Oeste 24 Oeste 0 1010.3 0 63
2019-05-22 17:00:00 20.7 12 Oeste 20 Oeste 0 1010.2 -0.3 56
2019-05-22 16:00:00 19 14 Oeste 25 Oeste 0 1010.3 -0.2 61
2019-05-22 15:00:00 19.5 18 Oeste 24 Noroeste 0 1010.3 0.3 59
2019-05-22 14:00:00 20.8 11 Oeste 20 Oeste 0 1010.5 0.7 50
2019-05-22 13:00:00 20.6 6 Noroeste 21 Oeste 0 1010.5 0.5 50
2019-05-22 12:00:00 20.4 7 Nordeste 9 Nordeste 0 1010 0.2 55
2019-05-22 11:00:00 18.6 6 Este 10 Este 0 1009.8 0.2 61
2019-05-22 10:00:00 17.2 4 Este 10 Sudeste 0 1010 0.5 65
2019-05-22 09:00:00 13.5 6 Sudeste 13 Sudeste 0 1009.8 0.5 72
2019-05-22 08:00:00 12.6 7 Sudeste 12 Sudeste 0 1009.6 -0.1 77
2019-05-22 07:00:00 12 5 Sudeste 11 Sur 0 1009.5 -0.4 77
2019-05-22 06:00:00 12.3 6 Sudeste 12 Sudeste 0 1009.3 -0.9 76
2019-05-22 05:00:00 12.7 4 Sudeste 13 Sudeste 0 1009.7 -1 74
2019-05-22 04:00:00 13.2 6 Sudeste 15 Sudeste 0 1009.9 -0.6 75
2019-05-22 03:00:00 13.9 9 Sudeste 14 Sudeste 0 1010.2 -0.4 83
2019-05-22 02:00:00 14.3 4 Este 7 Norte 0 1010.7 0.2 78
2019-05-22 01:00:00 15.1 5 Nordeste 10 Nordeste 0 1010.5 0.6 79
2019-05-22 00:00:00 15.7 2 Nordeste 4 Nordeste 0 1010.6 1 76